Time;durP1;ratioP1;P1;durP2;ratioP2;P2;SDS_P1;SDS_P2;PMS_P1;PMS_P2;Temp;Humidity;BMP_temperature;BMP_pressure;BME280_temperature;BME280_humidity;BME280_pressure;Samples;Min_cycle;Max_cycle;Signal;HPM_P1;HPM_P2
2023/09/11 00:01:40;;;;;;;5.30;4.13;;;;;;;23.84;49.96;93555.81;4807530;29;20057;-93
2023/09/11 00:04:08;;;;;;;4.93;4.32;;;;;;;23.85;50.11;93549.75;4794466;29;20053;-93
2023/09/11 00:06:35;;;;;;;5.07;3.95;;;;;;;23.83;49.97;93549.53;4794240;29;20043;-93
2023/09/11 00:09:02;;;;;;;4.97;4.00;;;;;;;23.84;49.95;93547.53;4792551;29;20676;-93
2023/09/11 00:11:36;;;;;;;5.95;4.40;;;;;;;23.84;49.76;93542.00;4789516;29;20066;-92
2023/09/11 00:14:03;;;;;;;5.30;4.63;;;;;;;23.85;49.79;93544.22;4762169;29;20047;-93
2023/09/11 00:16:29;;;;;;;5.07;3.97;;;;;;;23.83;49.94;93535.75;4778881;29;20031;-93
2023/09/11 00:18:56;;;;;;;4.90;4.40;;;;;;;23.82;49.96;93537.03;4796716;29;20050;-92
2023/09/11 00:21:23;;;;;;;7.43;4.47;;;;;;;23.83;50.03;93532.97;4835741;29;20049;-94
2023/09/11 00:23:49;;;;;;;4.85;3.85;;;;;;;23.82;49.95;93534.25;4818108;29;20046;-93
2023/09/11 00:26:16;;;;;;;6.53;4.60;;;;;;;23.83;49.92;93537.75;4843432;29;20041;-93
2023/09/11 00:28:44;;;;;;;4.38;3.80;;;;;;;23.82;49.85;93528.75;4845673;29;20057;-93
2023/09/11 00:31:13;;;;;;;4.75;4.10;;;;;;;23.83;49.96;93526.72;4846193;29;20058;-93
2023/09/11 00:33:39;;;;;;;5.38;4.13;;;;;;;23.82;49.78;93528.75;4812599;29;20092;-93
2023/09/11 00:36:05;;;;;;;7.28;4.13;;;;;;;23.82;49.83;93530.75;4799938;29;20438;-93
2023/09/11 00:38:30;;;;;;;4.82;4.20;;;;;;;23.82;49.85;93528.00;4802988;29;20049;-93
2023/09/11 00:40:57;;;;;;;5.57;4.25;;;;;;;23.84;49.85;93528.19;4809303;29;20058;-93
2023/09/11 00:43:29;;;;;;;5.15;4.20;;;;;;;23.84;49.71;93519.91;4808993;29;20061;-94
2023/09/11 00:45:55;;;;;;;6.30;4.40;;;;;;;23.86;50.00;93526.38;4824750;29;20058;-92
2023/09/11 00:48:21;;;;;;;6.22;4.13;;;;;;;23.84;49.77;93526.19;4785143;29;20051;-94
2023/09/11 00:50:46;;;;;;;4.45;3.50;;;;;;;23.80;49.80;93530.59;4793628;29;20202;-93
2023/09/11 00:53:12;;;;;;;6.45;4.57;;;;;;;23.81;49.81;93521.03;4792808;29;20596;-94
2023/09/11 00:55:39;;;;;;;9.60;4.82;;;;;;;23.80;49.96;93522.31;4797290;29;20081;-94
2023/09/11 00:58:06;;;;;;;5.10;3.90;;;;;;;23.80;49.90;93517.53;4776321;29;20069;-93
2023/09/11 01:00:32;;;;;;;5.53;4.20;;;;;;;23.80;50.04;93514.03;4823114;29;20046;-93
2023/09/11 01:02:58;;;;;;;6.07;4.65;;;;;;;23.80;49.85;93514.03;4819776;29;20045;-93
2023/09/11 01:05:26;;;;;;;12.60;4.75;;;;;;;23.79;49.66;93507.78;4850453;29;20043;-93
2023/09/11 01:07:54;;;;;;;9.20;4.50;;;;;;;23.79;49.75;93518.81;4868353;29;20045;-93
2023/09/11 01:10:21;;;;;;;10.95;5.28;;;;;;;23.81;49.66;93512.75;4867627;29;20048;-93
2023/09/11 01:12:48;;;;;;;7.38;4.82;;;;;;;23.79;49.56;93513.28;4863572;29;20056;-93
2023/09/11 01:15:15;;;;;;;6.78;4.80;;;;;;;23.82;49.50;93514.19;4826391;29;20062;-93
2023/09/11 01:17:54;;;;;;;7.13;5.10;;;;;;;23.80;49.62;93512.00;4819171;29;20136;-92
2023/09/11 01:20:53;;;;;;;7.60;5.20;;;;;;;23.80;49.47;93509.25;4782187;29;20050;-93
2023/09/11 01:23:37;;;;;;;6.10;4.53;;;;;;;23.80;49.51;93506.50;4824690;29;20060;-93
2023/09/11 01:26:07;;;;;;;6.28;4.88;;;;;;;23.81;49.53;93504.47;4826789;29;20066;-93
2023/09/11 01:29:18;;;;;;;8.38;5.25;;;;;;;23.79;49.49;93499.50;4817492;29;20083;-94
2023/09/11 01:31:44;;;;;;;11.18;5.22;;;;;;;23.79;49.44;93499.50;4815837;29;20046;-93
2023/09/11 01:34:14;;;;;;;7.40;5.50;;;;;;;23.79;49.15;93502.25;4784027;29;20054;-92
2023/09/11 01:36:40;;;;;;;7.45;5.45;;;;;;;23.80;49.55;93503.00;4815499;29;20045;-93
2023/09/11 01:39:05;;;;;;;9.30;5.90;;;;;;;23.79;49.36;93504.28;4795468;29;20071;-93
2023/09/11 01:41:34;;;;;;;10.40;5.90;;;;;;;23.79;49.36;93504.28;4813115;29;20101;-93
2023/09/11 01:44:18;;;;;;;8.38;6.25;;;;;;;23.77;49.34;93507.56;4769550;29;20086;-93
2023/09/11 01:46:45;;;;;;;11.40;6.40;;;;;;;23.78;49.44;93500.78;4842199;29;20061;-93
2023/09/11 01:49:12;;;;;;;9.70;5.70;;;;;;;23.79;49.36;93498.75;4816941;29;20053;-92
2023/09/11 01:51:41;;;;;;;8.90;6.45;;;;;;;23.77;49.45;93501.31;4824683;29;20046;-92
2023/09/11 01:54:06;;;;;;;12.70;6.88;;;;;;;23.79;49.50;93502.25;4814372;29;20057;-93
2023/09/11 01:56:35;;;;;;;9.45;7.18;;;;;;;23.78;49.38;93494.50;4822954;29;20495;-92
2023/09/11 01:59:01;;;;;;;9.50;6.88;;;;;;;23.77;49.37;93502.06;4806696;29;20054;-93
2023/09/11 02:01:33;;;;;;;10.95;7.63;;;;;;;23.76;49.50;93500.56;4811344;29;20064;-93
2023/09/11 02:04:00;;;;;;;12.55;8.00;;;;;;;23.76;49.55;93497.06;4807221;29;20590;-94
2023/09/11 02:06:25;;;;;;;10.90;7.07;;;;;;;23.77;49.53;93502.06;4795053;29;20091;-92
2023/09/11 02:08:51;;;;;;;11.63;7.22;;;;;;;23.76;49.25;93506.09;4817734;29;20050;-93
2023/09/11 02:11:16;;;;;;;11.65;7.43;;;;;;;23.75;49.52;93496.34;4767248;30;20070;-93
2023/09/11 02:13:45;;;;;;;12.45;7.43;;;;;;;23.77;49.28;93504.06;4749722;30;20109;-92
2023/09/11 02:16:10;;;;;;;12.75;8.23;;;;;;;23.77;49.42;93504.81;4789185;29;20100;-92
2023/09/11 02:18:38;;;;;;;13.20;7.75;;;;;;;23.75;49.58;93498.34;4771211;30;20093;-93
2023/09/11 02:21:09;;;;;;;14.52;8.93;;;;;;;23.76;49.38;93491.56;4793572;29;20051;-93
2023/09/11 02:23:36;;;;;;;13.02;7.85;;;;;;;23.74;49.23;93491.34;4789969;29;20110;-93
2023/09/11 02:26:03;;;;;;;11.18;8.20;;;;;;;23.76;49.40;93491.56;4772703;29;20077;-94
2023/09/11 02:28:31;;;;;;;12.38;8.30;;;;;;;23.75;49.29;93493.56;4781627;29;20055;-92
2023/09/11 02:30:57;;;;;;;12.98;8.32;;;;;;;23.76;49.19;93491.56;4788540;29;20047;-95
2023/09/11 02:33:24;;;;;;;12.27;8.50;;;;;;;23.75;49.54;93493.56;4825959;29;20050;-93
2023/09/11 02:36:02;;;;;;;13.40;8.23;;;;;;;23.74;49.28;93483.81;4815575;29;20101;-92
2023/09/11 02:38:29;;;;;;;13.38;8.55;;;;;;;23.74;49.35;93491.34;4812432;29;20049;-93
2023/09/11 02:40:55;;;;;;;11.57;8.27;;;;;;;23.75;49.40;93488.06;4828503;29;20077;-94
2023/09/11 02:43:21;;;;;;;14.82;8.18;;;;;;;23.74;49.27;93488.59;4867208;29;20071;-93
2023/09/11 02:45:58;;;;;;;13.90;9.23;;;;;;;23.73;49.48;93487.84;4847480;29;20492;-93
2023/09/11 02:48:27;;;;;;;14.48;9.25;;;;;;;23.74;49.29;93489.34;4823513;29;20041;-93
2023/09/11 02:51:01;;;;;;;15.38;9.02;;;;;;;23.73;49.39;93485.09;4799233;29;20064;-93
2023/09/11 02:53:27;;;;;;;17.20;9.68;;;;;;;23.76;49.39;93488.78;4812140;29;20054;-93
2023/09/11 02:55:55;;;;;;;15.68;10.00;;;;;;;23.74;49.33;93475.53;4812715;29;20050;-93
2023/09/11 02:58:23;;;;;;;15.35;9.95;;;;;;;23.72;49.32;93478.09;4802263;29;20301;-93
2023/09/11 03:00:50;;;;;;;14.45;9.15;;;;;;;23.73;49.35;93465.78;4814094;29;20145;-93
2023/09/11 03:03:17;;;;;;;14.52;9.68;;;;;;;23.74;49.36;93477.56;4797338;29;20039;-93
2023/09/11 03:05:43;;;;;;;16.88;10.18;;;;;;;23.71;49.60;93476.63;4797039;29;20098;-93
2023/09/11 03:08:11;;;;;;;18.65;10.40;;;;;;;23.74;49.34;93477.56;4773127;29;20054;-92
2023/09/11 03:10:37;;;;;;;14.18;9.98;;;;;;;23.73;49.14;93474.06;4762428;30;20492;-93
2023/09/11 03:13:05;;;;;;;15.60;10.27;;;;;;;23.72;49.24;93477.34;4775635;29;20051;-92
2023/09/11 03:15:34;;;;;;;17.75;10.23;;;;;;;23.73;49.30;93474.06;4758700;29;20104;-93
2023/09/11 03:18:01;;;;;;;17.00;10.65;;;;;;;23.72;49.27;93466.31;4780641;30;20051;-93
2023/09/11 03:20:29;;;;;;;14.55;10.10;;;;;;;23.70;49.17;93466.84;4779037;29;20087;-93
2023/09/11 03:22:54;;;;;;;18.42;10.20;;;;;;;23.74;49.29;93475.53;4841731;29;20193;-93
2023/09/11 03:25:21;;;;;;;16.27;9.93;;;;;;;23.72;49.22;93475.34;4824133;29;20045;-92
2023/09/11 03:27:47;;;;;;;18.35;10.73;;;;;;;23.74;49.35;93470.00;4831403;29;20059;-92
2023/09/11 03:30:13;;;;;;;18.48;10.82;;;;;;;23.76;49.27;93475.00;4800324;29;20061;-94
2023/09/11 03:32:39;;;;;;;21.83;10.68;;;;;;;23.74;49.46;93470.00;4823638;29;20053;-93
2023/09/11 03:35:05;;;;;;;17.40;9.95;;;;;;;23.78;49.37;93472.44;4808239;29;20050;-93
2023/09/11 03:37:31;;;;;;;18.13;11.75;;;;;;;23.75;49.87;93462.47;4794783;29;20050;-95
2023/09/11 03:39:58;;;;;;;16.23;10.63;;;;;;;23.68;50.05;93461.16;4773939;29;20055;-93
2023/09/11 03:42:24;;;;;;;61.58;30.55;;;;;;;23.54;50.50;93466.03;4787593;29;20054;-93
2023/09/11 03:44:53;;;;;;;43.00;38.17;;;;;;;23.49;50.91;93466.16;4799863;29;20050;-91
2023/09/11 03:47:29;;;;;;;23.20;17.65;;;;;;;23.36;50.68;93466.28;4815408;29;20051;-94
2023/09/11 03:49:55;;;;;;;18.60;13.45;;;;;;;23.25;51.27;93462.53;4799219;29;20479;-90
2023/09/11 03:52:35;;;;;;;28.95;14.63;;;;;;;23.04;51.94;93466.59;4823667;29;20082;-94
2023/09/11 03:55:02;;;;;;;19.92;13.13;;;;;;;22.90;52.23;93463.94;4811286;29;20051;-91
2023/09/11 03:57:27;;;;;;;33.28;13.38;;;;;;;22.88;52.19;93463.72;4850415;29;20049;-91
2023/09/11 03:59:53;;;;;;;30.30;18.13;;;;;;;22.77;52.42;93458.47;4832826;29;20061;-90
2023/09/11 04:02:30;;;;;;;45.17;28.33;;;;;;;22.70;52.71;93461.16;4847120;29;20045;-92
2023/09/11 04:04:56;;;;;;;21.13;13.40;;;;;;;22.69;52.81;93462.44;4856709;29;20049;-91
2023/09/11 04:07:22;;;;;;;24.77;14.30;;;;;;;22.52;52.78;93462.81;4818422;29;20060;-91
2023/09/11 04:09:47;;;;;;;29.20;14.18;;;;;;;22.56;52.84;93460.47;4810827;29;20095;-91
2023/09/11 04:12:22;;;;;;;22.55;13.38;;;;;;;22.53;52.87;93454.00;4783258;29;20450;-92
2023/09/11 04:14:52;;;;;;;26.02;13.23;;;;;;;22.47;53.26;93463.69;4772035;29;20050;-93
2023/09/11 04:17:28;;;;;;;20.02;13.32;;;;;;;22.55;52.82;93461.72;4791568;29;20130;-92
2023/09/11 04:20:11;;;;;;;39.55;23.83;;;;;;;22.54;52.87;93457.50;4804544;29;20057;-93
2023/09/11 04:22:38;;;;;;;32.00;17.60;;;;;;;22.43;53.37;93458.50;4779694;29;20053;-93
2023/09/11 04:25:08;;;;;;;28.17;16.88;;;;;;;22.36;53.60;93450.91;4761921;29;20064;-93
2023/09/11 04:27:45;;;;;;;40.28;20.52;;;;;;;22.24;53.71;93452.44;4769279;29;20074;-93
2023/09/11 04:30:25;;;;;;;46.60;21.08;;;;;;;22.13;53.76;93458.19;4800469;29;20134;-92
2023/09/11 04:33:03;;;;;;;38.22;18.45;;;;;;;22.12;53.75;93446.44;4796889;29;20051;-92
2023/09/11 04:35:35;;;;;;;42.33;18.73;;;;;;;22.18;53.62;93449.81;4776545;29;20550;-92
2023/09/11 04:38:37;;;;;;;38.03;14.25;;;;;;;22.15;53.66;93461.91;4759636;30;20204;-92
2023/09/11 04:41:03;;;;;;;23.83;12.38;;;;;;;22.18;53.41;93465.59;4785206;29;20067;-91
2023/09/11 04:45:59;;;;;;;29.48;15.38;;;;;;;21.91;54.25;93464.88;4896677;23;20061;-92
2023/09/11 04:48:56;;;;;;;52.33;21.23;;;;;;;21.89;54.50;93462.66;4812387;29;20065;-93
2023/09/11 04:51:21;;;;;;;34.70;17.80;;;;;;;21.83;54.74;93462.06;4864371;29;20039;-91
2023/09/11 04:53:48;;;;;;;42.53;20.10;;;;;;;21.86;54.54;93457.50;4832044;29;20041;-94
2023/09/11 04:56:14;;;;;;;51.25;26.23;;;;;;;21.82;54.78;93460.59;4844375;29;20050;-94
2023/09/11 04:58:56;;;;;;;38.95;22.33;;;;;;;21.83;54.68;93456.56;4850605;29;20100;-94
2023/09/11 05:01:34;;;;;;;85.15;37.50;;;;;;;21.77;55.12;93457.94;4784595;29;20072;-95
2023/09/11 05:04:35;;;;;;;82.20;40.80;;;;;;;21.90;54.50;93452.41;4815426;29;20061;-93
2023/09/11 05:07:13;;;;;;;85.68;39.78;;;;;;;21.83;54.79;93453.81;4841893;23;20116;-92
2023/09/11 05:09:41;;;;;;;72.90;28.20;;;;;;;21.84;55.01;93451.78;4846460;29;20053;-92
2023/09/11 05:12:07;;;;;;;45.95;21.75;;;;;;;21.84;55.32;93460.06;4849741;29;20056;-94
2023/09/11 05:14:32;;;;;;;32.83;18.50;;;;;;;21.83;55.35;93458.56;4850297;29;20060;-93
2023/09/11 05:16:58;;;;;;;36.83;17.38;;;;;;;21.81;55.27;93461.13;4868433;29;20116;-92
2023/09/11 05:19:23;;;;;;;32.13;14.73;;;;;;;21.79;55.11;93461.66;4855830;29;20067;-90
2023/09/11 05:21:49;;;;;;;29.77;13.15;;;;;;;21.73;54.80;93466.50;4866235;29;20063;-90
2023/09/11 05:24:15;;;;;;;63.88;30.65;;;;;;;21.61;55.55;93462.53;4857364;29;20048;-91
2023/09/11 05:26:42;;;;;;;61.45;27.95;;;;;;;21.63;55.78;93473.72;4818745;29;20058;-91
2023/09/11 05:29:09;;;;;;;81.82;40.05;;;;;;;21.55;56.01;93470.88;4822101;29;20073;-93
2023/09/11 05:31:36;;;;;;;92.45;40.42;;;;;;;21.61;56.25;93473.53;4822369;29;20045;-93
2023/09/11 05:34:02;;;;;;;73.57;34.25;;;;;;;21.75;56.17;93468.72;4816607;29;20058;-92
2023/09/11 05:36:27;;;;;;;55.72;26.52;;;;;;;21.70;56.64;93469.59;4808837;29;20053;-94
2023/09/11 05:38:53;;;;;;;42.63;21.98;;;;;;;21.76;56.55;93478.47;4806806;29;20053;-93
2023/09/11 05:43:55;;;;;;;36.47;19.77;;;;;;;21.72;57.27;93467.78;5321034;23;20397;-91
2023/09/11 05:46:21;;;;;;;31.63;19.75;;;;;;;21.75;57.35;93472.22;4844630;29;20045;-92
2023/09/11 05:48:46;;;;;;;34.50;17.75;;;;;;;21.69;57.49;93481.84;4845126;29;20041;-91
2023/09/11 05:51:13;;;;;;;58.67;33.45;;;;;;;21.61;57.41;93483.78;4827946;29;20041;-92
2023/09/11 05:53:42;;;;;;;121.07;67.90;;;;;;;21.66;57.50;93475.41;4858417;29;20048;-93
2023/09/11 05:56:11;;;;;;;110.28;62.83;;;;;;;21.67;57.61;93476.88;4853006;29;20070;-93
2023/09/11 05:58:37;;;;;;;129.23;69.43;;;;;;;21.65;57.86;93481.47;4826829;29;20053;-92
2023/09/11 06:01:03;;;;;;;64.75;36.13;;;;;;;21.81;57.38;93472.84;4810358;29;20093;-92
2023/09/11 06:03:29;;;;;;;46.70;28.50;;;;;;;21.78;57.69;93473.19;4822287;29;20041;-91
2023/09/11 06:05:56;;;;;;;37.45;21.40;;;;;;;21.74;57.75;93481.75;4818180;29;20474;-93
2023/09/11 06:08:22;;;;;;;41.78;21.42;;;;;;;21.71;58.63;93474.56;4827599;29;20050;-93
2023/09/11 06:13:26;;;;;;;25.90;14.50;;;;;;;21.67;58.28;93478.88;5013295;23;20056;-94
2023/09/11 06:15:53;;;;;;;18.38;13.88;;;;;;;21.67;58.52;93476.88;4877603;29;20078;-91
2023/09/11 06:23:18;;;;;;;18.45;12.52;;;;;;;21.83;58.12;93467.56;4945446;23;20576;-91
2023/09/11 06:25:47;;;;;;;16.23;10.80;;;;;;;21.86;58.18;93479.53;4842337;29;20041;-94
2023/09/11 06:28:41;;;;;;;13.07;10.82;;;;;;;21.97;58.12;93473.78;4855189;29;20020;-94
2023/09/11 06:36:14;;;;;;;29.15;17.55;;;;;;;22.16;57.98;93476.41;4889862;29;20120;-95
2023/09/11 06:38:47;;;;;;;23.05;15.23;;;;;;;22.11;58.03;93480.75;4857321;29;20433;-92
2023/09/11 06:41:36;;;;;;;31.10;14.18;;;;;;;22.18;58.73;93473.84;4916623;29;20108;-93
2023/09/11 06:44:04;;;;;;;16.95;11.57;;;;;;;22.16;59.19;93462.63;4849927;29;20052;-94
2023/09/11 06:46:30;;;;;;;29.33;13.75;;;;;;;22.18;58.87;93474.59;4787427;29;20076;-95
2023/09/11 06:49:11;;;;;;;36.28;16.15;;;;;;;22.15;59.36;93472.91;4772940;29;20550;-94
2023/09/11 06:52:03;;;;;;;;;;;;;;;22.25;58.73;93467.69;4807235;29;20066;-95
2023/09/11 06:54:34;;;;;;;29.65;15.35;;;;;;;22.31;58.56;93468.28;4770873;30;20592;-94
2023/09/11 06:57:09;;;;;;;52.25;30.42;;;;;;;22.32;58.51;93475.28;4823336;23;20072;-95
2023/09/11 06:59:45;;;;;;;85.53;28.80;;;;;;;22.37;58.46;93481.94;5100637;23;20045;-91
2023/09/11 07:02:14;;;;;;;75.95;22.60;;;;;;;22.45;58.02;93480.75;4793139;29;20054;-94
2023/09/11 07:04:51;;;;;;;27.33;13.93;;;;;;;22.52;57.85;93473.81;4767065;29;20055;-94
2023/09/11 07:07:26;;;;;;;19.20;12.48;;;;;;;22.51;58.08;93481.38;4756268;29;20042;-94
2023/09/11 07:09:52;;;;;;;23.98;18.48;;;;;;;22.59;58.41;93495.22;4789981;29;20058;-94
2023/09/11 07:18:17;;;;;;;27.25;14.57;;;;;;;22.69;58.88;93493.47;4750877;29;20078;-95
2023/09/11 07:21:21;;;;;;;24.67;13.65;;;;;;;22.72;58.93;93480.66;4729182;30;20049;-96
2023/09/11 07:26:52;;;;;;;24.63;12.75;;;;;;;22.73;58.65;93487.63;4813740;23;20082;-94
2023/09/11 07:29:24;;;;;;;27.15;12.25;;;;;;;22.72;58.74;93488.91;4845506;29;20505;-94
2023/09/11 07:35:22;;;;;;;;;;;;;;;;;;;;;
2023/09/11 07:38:08;;;;;;;;;;;;;;;;;;;;;
2023/09/11 07:40:37;;;;;;;47.65;18.95;;;;;;;22.90;57.90;93480.47;4715237;30;20215;-94
2023/09/11 07:43:03;;;;;;;78.53;36.40;;;;;;;22.94;57.97;93479.41;4740430;29;20048;-92
2023/09/11 07:45:37;;;;;;;88.65;45.72;;;;;;;22.93;58.02;93481.41;4758043;30;20072;-94
2023/09/11 07:48:37;;;;;;;88.05;43.45;;;;;;;23.05;57.53;93479.84;4791330;29;20047;-96
2023/09/11 08:00:30;;;;;;;145.15;83.30;;;;;;;23.17;57.07;93472.00;5116938;23;20670;-94
2023/09/11 08:11:47;;;;;;;203.60;96.40;;;;;;;23.26;56.88;93466.00;5143058;23;20056;-93
2023/09/11 08:14:22;;;;;;;206.88;94.18;;;;;;;23.33;56.90;93470.84;4858310;29;20048;-94
2023/09/11 08:17:09;;;;;;;175.70;91.22;;;;;;;23.34;56.74;93471.59;4827757;29;20095;-95
2023/09/11 08:20:17;;;;;;;124.57;64.88;;;;;;;23.42;57.36;93470.34;4854673;29;20049;-94
2023/09/11 08:26:10;;;;;;;103.65;54.85;;;;;;;23.50;57.58;93473.91;4840924;29;20045;-93
2023/09/11 08:28:36;;;;;;;97.20;47.72;;;;;;;23.50;57.76;93478.69;4820344;29;20052;-92
2023/09/11 08:31:03;;;;;;;85.05;44.35;;;;;;;23.64;57.73;93471.78;4858898;24;20088;-92
2023/09/11 08:33:31;;;;;;;89.30;42.28;;;;;;;23.70;57.79;93474.41;4857004;29;20048;-93
2023/09/11 08:35:56;;;;;;;87.32;45.25;;;;;;;23.71;57.65;93479.38;4862876;29;20033;-92
2023/09/11 08:38:22;;;;;;;90.57;43.13;;;;;;;23.76;57.52;93475.72;4815799;29;20054;-92
2023/09/11 08:40:47;;;;;;;79.97;43.83;;;;;;;23.85;57.57;93469.69;4857408;29;20049;-93
2023/09/11 08:43:44;;;;;;;92.10;51.22;;;;;;;23.82;57.75;93478.31;4831309;29;20117;-95
2023/09/11 08:46:11;;;;;;;143.68;64.70;;;;;;;23.79;57.51;93476.66;4825373;29;20050;-92
2023/09/11 08:48:37;;;;;;;172.43;70.28;;;;;;;23.76;57.69;93472.97;4827036;29;20646;-93
2023/09/11 08:51:06;;;;;;;109.13;43.63;;;;;;;23.78;57.63;93462.13;4801374;29;20053;-93
2023/09/11 08:53:35;;;;;;;103.78;43.65;;;;;;;23.73;57.83;93470.56;4841146;29;20076;-93
2023/09/11 08:56:01;;;;;;;73.85;31.35;;;;;;;23.73;57.96;93470.56;4818602;29;20053;-91
2023/09/11 08:58:28;;;;;;;85.20;44.65;;;;;;;23.77;57.83;93468.19;4815410;29;20060;-94
2023/09/11 09:00:55;;;;;;;70.00;33.78;;;;;;;23.83;56.71;93474.28;4807887;29;20050;-94
2023/09/11 09:03:30;;;;;;;72.57;38.65;;;;;;;23.77;56.99;93465.44;4808768;29;20042;-93
2023/09/11 09:06:05;;;;;;;65.53;31.75;;;;;;;23.77;56.71;93468.19;4847276;29;20057;-93
2023/09/11 09:08:31;;;;;;;57.10;30.20;;;;;;;23.77;56.75;93468.19;4789397;29;20067;-92
2023/09/11 09:10:58;;;;;;;41.42;26.08;;;;;;;23.88;56.21;93474.13;4771671;29;20058;-91
2023/09/11 09:13:23;;;;;;;53.67;29.75;;;;;;;23.77;56.83;93471.69;4771665;29;20039;-91
2023/09/11 09:15:49;;;;;;;66.95;38.63;;;;;;;23.89;56.26;93467.31;4771345;29;20328;-92
2023/09/11 09:18:15;;;;;;;124.57;71.63;;;;;;;23.87;55.99;93471.91;4782728;29;20062;-92
2023/09/11 09:20:42;;;;;;;117.88;65.20;;;;;;;23.78;56.29;93467.66;4776250;29;20073;-91
2023/09/11 09:23:08;;;;;;;147.27;88.20;;;;;;;23.83;56.30;93468.75;4769485;29;20112;-93
2023/09/11 09:25:33;;;;;;;158.27;89.57;;;;;;;23.88;56.05;93465.84;4741926;30;20055;-93
2023/09/11 09:27:59;;;;;;;173.57;94.55;;;;;;;23.81;56.10;93466.56;4742966;30;20053;-92
2023/09/11 09:30:27;;;;;;;118.43;69.68;;;;;;;23.89;55.76;93461.06;4777222;29;20072;-95
2023/09/11 09:32:52;;;;;;;140.35;82.88;;;;;;;23.84;56.08;93457.16;4736293;30;20064;-92
2023/09/11 09:35:32;;;;;;;140.32;74.82;;;;;;;23.89;55.91;93455.53;4748941;30;20041;-93
2023/09/11 09:38:08;;;;;;;168.13;84.65;;;;;;;23.84;56.14;93453.66;4748979;30;20124;-95
2023/09/11 10:04:22;;;;;;;200.32;93.68;;;;;;;23.86;56.64;93448.34;4988130;23;20120;-95
2023/09/11 10:07:52;;;;;;;195.10;85.07;;;;;;;23.84;56.52;93446.13;4796824;29;20234;-94
2023/09/11 10:11:28;;;;;;;;;;;;;;;;;;;;;
2023/09/11 10:18:00;;;;;;;;;;;;;;;;;;;;;
2023/09/11 10:20:26;;;;;;;116.78;63.58;;;;;;;23.90;56.36;93408.03;4588663;30;20504;-94
2023/09/11 10:23:01;;;;;;;126.82;67.40;;;;;;;23.86;56.57;93412.44;4630823;30;20061;-93
2023/09/11 10:25:38;;;;;;;79.90;46.92;;;;;;;23.91;56.51;93415.03;4599852;30;20129;-95
2023/09/11 10:28:13;;;;;;;72.20;38.72;;;;;;;23.99;56.54;93417.09;4605500;30;20117;-94
2023/09/11 10:30:47;;;;;;;91.57;53.95;;;;;;;23.94;56.28;93407.69;4623237;30;20055;-95
2023/09/11 10:33:23;;;;;;;93.88;53.50;;;;;;;23.97;56.36;93411.38;4615682;30;20086;-94
2023/09/11 10:36:06;;;;;;;68.88;38.42;;;;;;;24.00;56.30;93405.50;4615037;30;20133;-95
2023/09/11 10:38:35;;;;;;;77.72;45.20;;;;;;;23.99;56.60;93411.59;4678651;30;20045;-94
2023/09/11 10:41:00;;;;;;;75.32;44.60;;;;;;;23.98;56.69;93412.88;4684670;30;20052;-96
2023/09/11 10:43:29;;;;;;;46.08;30.40;;;;;;;24.01;56.73;93406.25;4699749;30;20048;-94
2023/09/11 10:46:21;;;;;;;41.53;28.35;;;;;;;24.04;56.40;93414.16;4675168;30;20511;-94
2023/09/11 10:48:47;;;;;;;39.75;25.73;;;;;;;24.10;56.63;93402.94;4700642;30;20094;-94
2023/09/11 10:51:16;;;;;;;37.20;23.98;;;;;;;24.08;56.53;93405.50;4708654;30;21023;-96
2023/09/11 10:53:41;;;;;;;40.30;24.27;;;;;;;24.11;56.60;93396.88;4719203;30;20048;-93
2023/09/11 10:56:38;;;;;;;;;;;;;;;;;;;;;
2023/09/11 11:12:44;;;;;;;125.97;66.65;;;;;;;24.12;56.89;93392.09;4859645;29;20093;-93
2023/09/11 11:15:36;;;;;;;136.27;79.78;;;;;;;24.13;56.95;93393.56;4828109;29;20433;-91
2023/09/11 11:18:19;;;;;;;182.20;108.30;;;;;;;24.16;57.18;93395.22;4850760;29;20121;-93
2023/09/11 11:21:00;;;;;;;182.20;99.22;;;;;;;24.17;57.18;93393.94;4817970;29;20037;-91
2023/09/11 11:23:53;;;;;;;196.48;115.95;;;;;;;24.16;57.38;93392.47;4890513;29;20053;-92
2023/09/11 11:29:01;;;;;;;171.68;99.03;;;;;;;24.22;57.12;93390.28;4972953;23;20052;-93
2023/09/11 11:31:29;;;;;;;198.07;108.90;;;;;;;24.27;57.12;93390.13;4849489;23;20052;-95
2023/09/11 11:40:52;;;;;;;222.35;119.07;;;;;;;24.18;57.33;93385.13;4755576;30;20139;-94
2023/09/11 11:43:28;;;;;;;168.80;88.75;;;;;;;24.22;57.70;93384.75;4756597;30;20787;-92
2023/09/11 11:46:16;;;;;;;185.57;104.55;;;;;;;24.31;57.62;93389.75;4765587;29;20083;-92
2023/09/11 11:54:55;;;;;;;190.48;86.70;;;;;;;24.22;57.80;93382.75;5050776;23;20516;-91
2023/09/11 11:57:31;;;;;;;162.70;81.22;;;;;;;24.36;57.48;93382.59;4839432;29;20094;-93
2023/09/11 12:00:33;;;;;;;160.68;80.80;;;;;;;24.27;57.63;93386.63;4851483;29;20049;-93
2023/09/11 12:03:21;;;;;;;152.65;82.10;;;;;;;24.30;57.85;93380.00;4815499;29;20086;-90
2023/09/11 12:06:03;;;;;;;159.00;77.07;;;;;;;24.33;57.88;93378.91;4800754;29;20042;-91
2023/09/11 12:08:29;;;;;;;151.27;76.25;;;;;;;24.31;57.98;93377.97;4800821;29;20103;-90
2023/09/11 12:19:17;;;;;;;124.88;68.38;;;;;;;24.36;57.71;93379.81;4904732;23;20056;-91
2023/09/11 12:38:10;;;;;;;127.60;73.80;;;;;;;24.51;57.28;93372.28;4891148;29;20036;-93
2023/09/11 12:40:36;;;;;;;;;;;;;;;24.47;56.98;93363.59;4856494;29;20133;-89
2023/09/11 12:43:12;;;;;;;89.43;54.60;;;;;;;24.57;56.43;93355.53;4857952;29;20307;-91
2023/09/11 12:45:38;;;;;;;87.28;55.53;;;;;;;24.62;56.31;93353.88;4856653;29;20040;-88
2023/09/11 12:48:04;;;;;;;85.93;53.53;;;;;;;24.59;56.23;93352.94;4873862;29;20055;-92
2023/09/11 12:50:30;;;;;;;78.97;46.85;;;;;;;24.65;56.69;93352.75;4880042;29;20488;-91
2023/09/11 12:53:01;;;;;;;50.20;32.25;;;;;;;24.59;55.98;93350.91;4864911;29;20088;-91
2023/09/11 12:55:26;;;;;;;56.35;33.22;;;;;;;24.62;55.96;93360.13;4893856;29;20052;-94
2023/09/11 12:57:57;;;;;;;63.67;33.28;;;;;;;24.56;56.07;93354.03;4855248;29;20064;-93
2023/09/11 13:00:51;;;;;;;53.38;27.23;;;;;;;24.56;55.76;93349.25;4843678;29;20033;-90
2023/09/11 13:03:17;;;;;;;47.55;21.63;;;;;;;24.64;55.51;93351.28;4868204;29;20687;-93
2023/09/11 13:05:43;;;;;;;48.55;22.60;;;;;;;24.59;55.40;93345.38;4830150;29;20144;-93
2023/09/11 13:08:10;;;;;;;74.90;28.92;;;;;;;24.62;55.57;93351.09;4871734;29;20055;-90
2023/09/11 13:10:36;;;;;;;72.25;33.33;;;;;;;24.58;54.71;93357.72;4853850;29;20044;-90
2023/09/11 13:13:04;;;;;;;97.45;43.17;;;;;;;24.62;54.92;93345.56;4857700;29;20049;-89
2023/09/11 13:15:31;;;;;;;108.30;47.22;;;;;;;24.61;54.89;93342.06;4848486;29;20140;-92
2023/09/11 13:17:56;;;;;;;117.10;53.30;;;;;;;24.59;54.88;93342.63;4816545;29;20050;-88
2023/09/11 13:20:24;;;;;;;148.70;60.40;;;;;;;24.65;54.56;93345.22;4789321;29;20398;-89
2023/09/11 13:22:50;;;;;;;142.05;65.45;;;;;;;24.67;54.69;93341.88;4790434;29;20051;-91
2023/09/11 13:25:16;;;;;;;181.38;93.72;;;;;;;24.71;54.17;93353.28;4802402;29;20043;-91
2023/09/11 13:27:41;;;;;;;235.20;128.40;;;;;;;24.68;54.16;93335.06;4779492;29;20085;-90
2023/09/11 13:30:07;;;;;;;302.70;171.00;;;;;;;24.74;53.78;93322.50;4781033;29;20084;-92
2023/09/11 13:32:42;;;;;;;266.70;138.70;;;;;;;24.71;53.50;93331.91;4807876;29;20158;-93
2023/09/11 13:35:09;;;;;;;275.20;133.98;;;;;;;24.71;53.53;93331.19;4806634;29;20039;-90
2023/09/11 13:37:34;;;;;;;226.90;105.55;;;;;;;24.72;53.31;93324.34;4772561;29;20119;-91
2023/09/11 13:40:01;;;;;;;210.77;94.30;;;;;;;24.72;53.19;93316.81;4778349;29;20058;-90
2023/09/11 13:42:27;;;;;;;113.97;57.05;;;;;;;24.77;52.72;93321.41;4803726;29;20050;-89
2023/09/11 13:44:53;;;;;;;153.05;68.63;;;;;;;24.74;52.20;93321.78;4797384;29;20654;-90
2023/09/11 13:47:19;;;;;;;168.75;73.60;;;;;;;24.78;52.97;93322.16;4781498;29;20158;-90
2023/09/11 13:49:44;;;;;;;181.45;74.93;;;;;;;24.78;52.83;93317.34;4792707;29;20069;-88
2023/09/11 13:52:10;;;;;;;191.88;67.93;;;;;;;24.81;52.82;93321.03;4819353;29;20042;-88
2023/09/11 13:54:38;;;;;;;214.70;74.97;;;;;;;24.78;53.03;93322.16;4842814;29;20123;-90
2023/09/11 13:57:08;;;;;;;231.93;80.32;;;;;;;24.78;52.92;93317.34;4856271;29;20116;-87
2023/09/11 13:59:34;;;;;;;168.43;67.15;;;;;;;24.82;52.56;93322.50;4908229;29;20041;-90